Vero Beach Municipal, FL

12:20 EDT le 31 octobre 2014 (GMT -0400)
Saint Lucie County International | Change Station
CLOSE
Current Station
Aéroport
Location: Ft Pierce,
Altitude: 23 ft
Stations météo à proximité

Alt. 23 ft 27.50 °N, 80.38 °W | Updated 27 minutes ago

Ciel dégagé
Ciel dégagé
81 ° F
Paraît 83 ° F
N
9
Vent Variable Vent de Ouest

Aujourd'hui
Haut(e) -- | Bas -- ° F
--% Risque de précip.
Hier
Haut(e) -- | Bas -- ° F
Precip. -- pouce
7:31 AM 6:38 PM
Premier quartier, 56% visible
Pression 29.83 pouce
Visibilité 10.0 Miles terrestres
Nuages Peu 3100 ft
indice de chaleur 83 ° F
Point de rosée 65 ° F
Humidité 58%
Précipitations 0.00 pouce
Profondeur de la couche neigeuse Non disponible.
UV 7 sur 12
Pollen 3.70 sur 12
Qualité de l'air Non disponible.
Flu Activity Non disponible.
METAR KFPR 311553Z 28008KT 10SM FEW031 27/18 A2983 RMK AO2 SLP102 T02720183

More Conditions Fewer Conditions

Pression 29.83 pouce
Visibilité 10.0 Miles terrestres
Nuages Peu 3100 ft
indice de chaleur 83 ° F
Point de rosée 65 ° F
Humidité 58%
Précipitations 0.00 pouce
Profondeur de la couche neigeuse Non disponible.
UV 7 sur 12
Pollen 3.70 sur 12
Qualité de l'air Non disponible.
Flu Activity Non disponible.
METAR KFPR 311553Z 28008KT 10SM FEW031 27/18 A2983 RMK AO2 SLP102 T02720183

More Conditions Fewer Conditions

10-Day Weather Forecast

Almanac

Astronomie

Oct. 31, 2014 Lever Coucher
Temps réel
Crépuscule civil
Crépuscule nautique
Crépuscule astronomique
Lune
Durée de lumière visible
Longueur du jour
Tomorrow will be .
, % of the Moon is Illuminated

Extrêmes aujourd'hui

State Highs State Lows

Community

WunderPhotos

Upload Photos

1,766,652 Photos téléchargées !

WunderBlogs® & News

Nearby

Qualité de l'air

  Qualité de l'air Indice de la qualité de l'air Polluant
Not available.

Épaisseur de neige

Station Depth Altitude

Activité sismique

Ville Distance Mag. Time & Date
Minimum magnitude displayed is 2.5.

Températures des eaux côtières

Lieu Température

Stations météo à proximité